sensor_id;sensor_type;location;lat;lon;timestamp;P1;durP1;ratioP1;P2;durP2;ratioP2
47894;SDS011;33653;52.302;8.134;2023-06-24T00:00:48;3.60;;;2.53;;
47894;SDS011;33653;52.302;8.134;2023-06-24T00:03:19;5.97;;;2.13;;
47894;SDS011;33653;52.302;8.134;2023-06-24T00:05:47;3.42;;;2.35;;
47894;SDS011;33653;52.302;8.134;2023-06-24T00:08:17;2.50;;;2.08;;
47894;SDS011;33653;52.302;8.134;2023-06-24T00:10:49;3.33;;;2.28;;
47894;SDS011;33653;52.302;8.134;2023-06-24T00:13:17;2.75;;;2.38;;
47894;SDS011;33653;52.302;8.134;2023-06-24T00:15:45;3.10;;;2.65;;
47894;SDS011;33653;52.302;8.134;2023-06-24T00:18:14;3.63;;;2.50;;
47894;SDS011;33653;52.302;8.134;2023-06-24T00:20:42;2.78;;;2.13;;
47894;SDS011;33653;52.302;8.134;2023-06-24T00:23:26;2.75;;;2.08;;
47894;SDS011;33653;52.302;8.134;2023-06-24T00:25:55;3.95;;;2.70;;
47894;SDS011;33653;52.302;8.134;2023-06-24T00:28:24;2.70;;;2.10;;
47894;SDS011;33653;52.302;8.134;2023-06-24T00:30:53;2.92;;;2.13;;
47894;SDS011;33653;52.302;8.134;2023-06-24T00:33:22;2.50;;;2.30;;
47894;SDS011;33653;52.302;8.134;2023-06-24T00:35:50;2.53;;;1.90;;
47894;SDS011;33653;52.302;8.134;2023-06-24T00:38:18;2.75;;;2.22;;
47894;SDS011;33653;52.302;8.134;2023-06-24T00:40:47;3.08;;;2.47;;
47894;SDS011;33653;52.302;8.134;2023-06-24T00:43:15;4.95;;;2.45;;
47894;SDS011;33653;52.302;8.134;2023-06-24T00:45:44;2.72;;;2.13;;
47894;SDS011;33653;52.302;8.134;2023-06-24T00:48:15;2.67;;;2.47;;
47894;SDS011;33653;52.302;8.134;2023-06-24T00:50:44;4.03;;;2.53;;
47894;SDS011;33653;52.302;8.134;2023-06-24T00:53:12;2.92;;;2.30;;
47894;SDS011;33653;52.302;8.134;2023-06-24T00:55:41;2.58;;;2.35;;
47894;SDS011;33653;52.302;8.134;2023-06-24T00:58:10;2.38;;;2.00;;
47894;SDS011;33653;52.302;8.134;2023-06-24T01:00:43;3.03;;;2.47;;
47894;SDS011;33653;52.302;8.134;2023-06-24T01:03:13;3.58;;;2.38;;
47894;SDS011;33653;52.302;8.134;2023-06-24T01:05:42;4.80;;;2.10;;
47894;SDS011;33653;52.302;8.134;2023-06-24T01:08:12;2.13;;;1.92;;
47894;SDS011;33653;52.302;8.134;2023-06-24T01:10:45;2.72;;;2.17;;
47894;SDS011;33653;52.302;8.134;2023-06-24T01:17:31;2.72;;;2.30;;
47894;SDS011;33653;52.302;8.134;2023-06-24T01:37:12;2.35;;;2.15;;
47894;SDS011;33653;52.302;8.134;2023-06-24T01:40:09;3.65;;;2.78;;
47894;SDS011;33653;52.302;8.134;2023-06-24T01:42:45;4.13;;;2.55;;
47894;SDS011;33653;52.302;8.134;2023-06-24T01:45:16;3.50;;;2.30;;
47894;SDS011;33653;52.302;8.134;2023-06-24T01:47:54;3.08;;;2.33;;
47894;SDS011;33653;52.302;8.134;2023-06-24T01:50:39;4.25;;;2.63;;
47894;SDS011;33653;52.302;8.134;2023-06-24T01:53:24;2.40;;;1.92;;
47894;SDS011;33653;52.302;8.134;2023-06-24T01:55:57;2.90;;;2.42;;
47894;SDS011;33653;52.302;8.134;2023-06-24T01:58:27;6.78;;;2.40;;
47894;SDS011;33653;52.302;8.134;2023-06-24T02:00:57;2.35;;;2.08;;
47894;SDS011;33653;52.302;8.134;2023-06-24T02:06:22;2.65;;;2.25;;
47894;SDS011;33653;52.302;8.134;2023-06-24T02:08:53;4.40;;;2.40;;
47894;SDS011;33653;52.302;8.134;2023-06-24T02:11:28;2.15;;;1.85;;
47894;SDS011;33653;52.302;8.134;2023-06-24T02:14:48;2.58;;;2.33;;
47894;SDS011;33653;52.302;8.134;2023-06-24T02:17:20;2.85;;;2.25;;
47894;SDS011;33653;52.302;8.134;2023-06-24T02:19:52;5.63;;;2.55;;
47894;SDS011;33653;52.302;8.134;2023-06-24T02:22:22;3.53;;;2.75;;
47894;SDS011;33653;52.302;8.134;2023-06-24T02:24:52;5.07;;;2.22;;
47894;SDS011;33653;52.302;8.134;2023-06-24T02:30:24;4.43;;;2.30;;
47894;SDS011;33653;52.302;8.134;2023-06-24T02:32:56;3.63;;;2.60;;
47894;SDS011;33653;52.302;8.134;2023-06-24T02:35:27;3.10;;;2.53;;
47894;SDS011;33653;52.302;8.134;2023-06-24T02:37:55;2.67;;;2.30;;
47894;SDS011;33653;52.302;8.134;2023-06-24T02:40:24;3.83;;;2.38;;
47894;SDS011;33653;52.302;8.134;2023-06-24T02:42:53;3.13;;;2.47;;
47894;SDS011;33653;52.302;8.134;2023-06-24T02:45:27;2.55;;;2.28;;
47894;SDS011;33653;52.302;8.134;2023-06-24T02:47:57;3.15;;;2.20;;
47894;SDS011;33653;52.302;8.134;2023-06-24T02:50:27;3.03;;;2.45;;
47894;SDS011;33653;52.302;8.134;2023-06-24T02:52:55;2.80;;;2.40;;
47894;SDS011;33653;52.302;8.134;2023-06-24T02:55:28;4.13;;;2.60;;
47894;SDS011;33653;52.302;8.134;2023-06-24T02:58:02;2.90;;;2.28;;
47894;SDS011;33653;52.302;8.134;2023-06-24T03:05:51;3.13;;;2.75;;
47894;SDS011;33653;52.302;8.134;2023-06-24T03:13:07;4.43;;;2.70;;
47894;SDS011;33653;52.302;8.134;2023-06-24T03:15:43;4.55;;;2.90;;
47894;SDS011;33653;52.302;8.134;2023-06-24T03:20:47;4.90;;;2.72;;
47894;SDS011;33653;52.302;8.134;2023-06-24T03:23:19;3.25;;;2.55;;
47894;SDS011;33653;52.302;8.134;2023-06-24T03:25:48;4.22;;;2.80;;
47894;SDS011;33653;52.302;8.134;2023-06-24T03:28:17;6.13;;;2.53;;
47894;SDS011;33653;52.302;8.134;2023-06-24T03:30:51;3.10;;;2.63;;
47894;SDS011;33653;52.302;8.134;2023-06-24T03:33:20;3.08;;;2.17;;
47894;SDS011;33653;52.302;8.134;2023-06-24T03:35:49;3.20;;;2.80;;
47894;SDS011;33653;52.302;8.134;2023-06-24T03:38:23;2.65;;;2.38;;
47894;SDS011;33653;52.302;8.134;2023-06-24T03:40:51;5.20;;;3.30;;
47894;SDS011;33653;52.302;8.134;2023-06-24T03:43:20;5.60;;;2.53;;
47894;SDS011;33653;52.302;8.134;2023-06-24T03:45:49;2.70;;;2.40;;
47894;SDS011;33653;52.302;8.134;2023-06-24T03:48:19;2.38;;;2.05;;
47894;SDS011;33653;52.302;8.134;2023-06-24T03:50:47;6.97;;;2.80;;
47894;SDS011;33653;52.302;8.134;2023-06-24T03:53:15;3.53;;;3.20;;
47894;SDS011;33653;52.302;8.134;2023-06-24T03:55:44;3.35;;;2.75;;
47894;SDS011;33653;52.302;8.134;2023-06-24T03:58:13;2.97;;;2.47;;
47894;SDS011;33653;52.302;8.134;2023-06-24T04:00:44;3.65;;;2.55;;
47894;SDS011;33653;52.302;8.134;2023-06-24T04:03:13;3.92;;;2.55;;
47894;SDS011;33653;52.302;8.134;2023-06-24T04:05:59;4.45;;;2.97;;
47894;SDS011;33653;52.302;8.134;2023-06-24T04:08:28;6.05;;;2.55;;
47894;SDS011;33653;52.302;8.134;2023-06-24T04:10:57;3.47;;;2.22;;
47894;SDS011;33653;52.302;8.134;2023-06-24T04:13:30;3.83;;;2.95;;
47894;SDS011;33653;52.302;8.134;2023-06-24T04:16:02;3.50;;;2.47;;
47894;SDS011;33653;52.302;8.134;2023-06-24T04:18:30;3.22;;;2.10;;
47894;SDS011;33653;52.302;8.134;2023-06-24T04:20:58;3.50;;;2.65;;
47894;SDS011;33653;52.302;8.134;2023-06-24T04:23:46;4.28;;;2.70;;
47894;SDS011;33653;52.302;8.134;2023-06-24T04:26:16;5.18;;;3.78;;
47894;SDS011;33653;52.302;8.134;2023-06-24T04:28:45;4.00;;;2.85;;
47894;SDS011;33653;52.302;8.134;2023-06-24T04:31:13;6.38;;;3.13;;
47894;SDS011;33653;52.302;8.134;2023-06-24T04:33:41;4.93;;;3.60;;
47894;SDS011;33653;52.302;8.134;2023-06-24T04:36:10;6.05;;;3.28;;
47894;SDS011;33653;52.302;8.134;2023-06-24T04:38:38;3.90;;;2.72;;
47894;SDS011;33653;52.302;8.134;2023-06-24T04:41:06;4.38;;;3.03;;
47894;SDS011;33653;52.302;8.134;2023-06-24T04:43:35;2.75;;;2.25;;
47894;SDS011;33653;52.302;8.134;2023-06-24T04:46:05;4.85;;;2.78;;
47894;SDS011;33653;52.302;8.134;2023-06-24T04:48:33;4.13;;;3.60;;
47894;SDS011;33653;52.302;8.134;2023-06-24T04:51:02;4.28;;;3.53;;
47894;SDS011;33653;52.302;8.134;2023-06-24T04:53:30;3.85;;;3.40;;
47894;SDS011;33653;52.302;8.134;2023-06-24T04:55:59;4.05;;;3.45;;
47894;SDS011;33653;52.302;8.134;2023-06-24T04:58:27;4.93;;;3.45;;
47894;SDS011;33653;52.302;8.134;2023-06-24T05:01:00;3.50;;;2.92;;
47894;SDS011;33653;52.302;8.134;2023-06-24T05:03:30;3.47;;;2.60;;
47894;SDS011;33653;52.302;8.134;2023-06-24T05:05:59;3.67;;;2.70;;
47894;SDS011;33653;52.302;8.134;2023-06-24T05:08:27;6.28;;;2.97;;
47894;SDS011;33653;52.302;8.134;2023-06-24T05:10:55;4.20;;;2.83;;
47894;SDS011;33653;52.302;8.134;2023-06-24T05:13:23;4.32;;;3.30;;
47894;SDS011;33653;52.302;8.134;2023-06-24T05:18:24;4.82;;;3.38;;
47894;SDS011;33653;52.302;8.134;2023-06-24T05:20:52;5.72;;;2.85;;
47894;SDS011;33653;52.302;8.134;2023-06-24T05:23:20;4.55;;;3.22;;
47894;SDS011;33653;52.302;8.134;2023-06-24T05:25:48;5.97;;;3.17;;
47894;SDS011;33653;52.302;8.134;2023-06-24T05:28:19;5.28;;;3.10;;
47894;SDS011;33653;52.302;8.134;2023-06-24T05:33:41;4.22;;;3.35;;
47894;SDS011;33653;52.302;8.134;2023-06-24T05:36:09;4.90;;;3.58;;
47894;SDS011;33653;52.302;8.134;2023-06-24T05:38:38;4.68;;;3.42;;
47894;SDS011;33653;52.302;8.134;2023-06-24T05:41:06;5.30;;;3.42;;
47894;SDS011;33653;52.302;8.134;2023-06-24T05:43:34;4.78;;;3.45;;
47894;SDS011;33653;52.302;8.134;2023-06-24T05:46:03;4.55;;;3.58;;
47894;SDS011;33653;52.302;8.134;2023-06-24T05:48:32;6.53;;;3.45;;
47894;SDS011;33653;52.302;8.134;2023-06-24T05:51:01;5.90;;;3.50;;
47894;SDS011;33653;52.302;8.134;2023-06-24T05:53:29;6.65;;;3.42;;
47894;SDS011;33653;52.302;8.134;2023-06-24T05:56:03;6.30;;;3.63;;
47894;SDS011;33653;52.302;8.134;2023-06-24T06:01:25;4.60;;;3.38;;
47894;SDS011;33653;52.302;8.134;2023-06-24T06:03:54;5.57;;;3.80;;
47894;SDS011;33653;52.302;8.134;2023-06-24T06:06:23;5.22;;;3.72;;
47894;SDS011;33653;52.302;8.134;2023-06-24T06:08:51;6.60;;;3.53;;
47894;SDS011;33653;52.302;8.134;2023-06-24T06:11:20;5.13;;;3.60;;
47894;SDS011;33653;52.302;8.134;2023-06-24T06:13:48;5.43;;;3.45;;
47894;SDS011;33653;52.302;8.134;2023-06-24T06:18:49;5.28;;;3.45;;
47894;SDS011;33653;52.302;8.134;2023-06-24T06:21:17;6.80;;;3.42;;
47894;SDS011;33653;52.302;8.134;2023-06-24T06:23:46;8.50;;;3.58;;
